createdAt,value
2022-09-01T00:01:55.932Z,100776.44
2022-09-01T00:04:38.935Z,100783.75
2022-09-01T00:07:30.273Z,100781.84
2022-09-01T00:10:14.739Z,100775.34
2022-09-01T00:13:02.743Z,100785.63
2022-09-01T00:15:45.138Z,100776.09
2022-09-01T00:18:32.696Z,100775.97
2022-09-01T00:21:15.887Z,100772.00
2022-09-01T00:24:03.706Z,100769.94
2022-09-01T00:26:52.674Z,100759.72
2022-09-01T00:29:34.471Z,100755.09
2022-09-01T00:32:23.681Z,100759.94
2022-09-01T00:35:06.197Z,100748.34
2022-09-01T00:37:55.699Z,100752.03
2022-09-01T00:40:39.925Z,100741.81
2022-09-01T00:43:29.710Z,100742.56
2022-09-01T00:46:21.990Z,100742.94
2022-09-01T00:49:06.983Z,100738.72
2022-09-01T00:52:06.732Z,100728.56
2022-09-01T00:54:52.836Z,100722.88
2022-09-01T00:57:41.650Z,100729.50
2022-09-01T01:00:33.629Z,100727.38
2022-09-01T01:03:22.730Z,100722.53
2022-09-01T01:06:14.615Z,100713.94
2022-09-01T01:09:06.644Z,100719.00
2022-09-01T01:11:56.613Z,100722.47
2022-09-01T01:14:46.604Z,100715.00
2022-09-01T01:17:29.818Z,100719.72
2022-09-01T01:20:39.598Z,100722.97
2022-09-01T01:23:37.743Z,100716.59
2022-09-01T01:26:28.543Z,100713.53
2022-09-01T01:29:10.603Z,100715.88
2022-09-01T01:31:53.985Z,100710.19
2022-09-01T01:34:41.613Z,100705.13
2022-09-01T01:37:30.812Z,100707.78
2022-09-01T01:40:21.596Z,100709.97
2022-09-01T01:43:11.593Z,100708.50
2022-09-01T01:45:53.224Z,100710.19
2022-09-01T01:48:47.590Z,100709.97
2022-09-01T01:51:39.557Z,100699.13
2022-09-01T01:54:38.590Z,100691.66
2022-09-01T01:57:31.976Z,100690.09
2022-09-01T02:00:17.542Z,100692.06
2022-09-01T02:03:14.620Z,100690.94
2022-09-01T02:06:11.637Z,100681.13
2022-09-01T02:09:03.837Z,100680.50
2022-09-01T02:11:45.748Z,100673.16
2022-09-01T02:14:33.647Z,100673.81
2022-09-01T02:17:16.748Z,100676.53
2022-09-01T02:20:04.649Z,100675.88
2022-09-01T02:22:45.911Z,100676.72
2022-09-01T02:25:34.504Z,100682.41
2022-09-01T02:28:17.262Z,100685.13
2022-09-01T02:31:06.593Z,100675.16
2022-09-01T02:33:50.005Z,100679.91
2022-09-01T02:36:39.491Z,100675.28
2022-09-01T02:39:22.437Z,100675.59
2022-09-01T02:42:11.494Z,100677.56
2022-09-01T02:44:52.916Z,100676.34
2022-09-01T02:47:40.483Z,100672.53
2022-09-01T02:50:25.315Z,100675.59
2022-09-01T02:53:16.589Z,100668.88
2022-09-01T02:56:09.515Z,100677.81
2022-09-01T02:58:53.451Z,100672.09
2022-09-01T03:01:41.538Z,100664.63
2022-09-01T03:04:24.820Z,100672.94
2022-09-01T03:07:15.452Z,100669.59
2022-09-01T03:09:56.675Z,100665.59
2022-09-01T03:12:44.553Z,100669.81
2022-09-01T03:15:29.660Z,100651.28
2022-09-01T03:18:20.677Z,100657.59
2022-09-01T03:21:02.424Z,100653.28
2022-09-01T03:23:53.474Z,100667.69
2022-09-01T03:26:36.659Z,100657.41
2022-09-01T03:29:25.501Z,100656.56
2022-09-01T03:32:06.693Z,100658.13
2022-09-01T03:34:54.533Z,100656.47
2022-09-01T03:37:36.362Z,100652.56
2022-09-01T03:40:26.534Z,100646.56
2022-09-01T03:43:10.387Z,100637.94
2022-09-01T03:46:00.643Z,100634.25
2022-09-01T03:48:41.621Z,100636.78
2022-09-01T03:51:31.393Z,100634.25
2022-09-01T03:54:13.617Z,100623.75
2022-09-01T03:57:06.364Z,100632.13
2022-09-01T03:59:55.691Z,100631.00
2022-09-01T04:02:37.144Z,100628.28
2022-09-01T04:05:26.406Z,100622.59
2022-09-01T04:08:18.702Z,100624.25
2022-09-01T04:11:02.889Z,100624.25
2022-09-01T04:13:54.534Z,100627.44
2022-09-01T04:17:02.398Z,100627.94
2022-09-01T04:19:51.538Z,100627.31
2022-09-01T04:22:34.753Z,100622.06
2022-09-01T04:25:23.375Z,100629.00
2022-09-01T04:28:12.982Z,100617.84
2022-09-01T04:31:04.375Z,100623.31
2022-09-01T04:33:47.058Z,100619.97
2022-09-01T04:36:40.313Z,100621.22
2022-09-01T04:39:21.526Z,100611.53
2022-09-01T04:42:13.356Z,100610.28
2022-09-01T04:44:54.790Z,100605.44
2022-09-01T04:47:48.462Z,100605.66
2022-09-01T04:50:30.871Z,100604.22
2022-09-01T04:53:31.316Z,100593.25
2022-09-01T04:56:14.410Z,100602.31
2022-09-01T04:59:13.313Z,100605.78
2022-09-01T05:02:00.765Z,100608.41
2022-09-01T05:04:53.369Z,100607.97
2022-09-01T05:07:44.273Z,100598.31
2022-09-01T05:10:37.971Z,100602.72
2022-09-01T05:13:27.266Z,100613.66
2022-09-01T05:16:13.458Z,100605.03
2022-09-01T05:19:03.277Z,100603.03
2022-09-01T05:21:48.641Z,100610.69
2022-09-01T05:24:41.778Z,100605.84
2022-09-01T05:27:30.275Z,100604.81
2022-09-01T05:30:12.478Z,100603.03
2022-09-01T05:33:01.799Z,100606.28
2022-09-01T05:35:45.192Z,100600.81
2022-09-01T05:38:38.307Z,100606.00
2022-09-01T05:41:30.233Z,100612.59
2022-09-01T05:44:20.294Z,100608.78
2022-09-01T05:47:09.708Z,100613.31
2022-09-01T05:50:03.341Z,100608.63
2022-09-01T05:52:48.960Z,100612.59
2022-09-01T05:55:44.282Z,100602.50
2022-09-01T06:01:40.323Z,100609.97
2022-09-01T06:04:30.419Z,100608.41
2022-09-01T06:07:16.471Z,100607.44
2022-09-01T06:10:02.036Z,100609.47
2022-09-01T06:12:53.985Z,100607.44
2022-09-01T06:15:44.285Z,100598.41
2022-09-01T06:18:26.191Z,100603.56
2022-09-01T06:21:14.868Z,100607.84
2022-09-01T06:23:58.196Z,100603.56
2022-09-01T06:26:46.948Z,100603.88
2022-09-01T06:29:30.203Z,100608.50
2022-09-01T06:32:19.564Z,100614.81
2022-09-01T06:35:04.164Z,100618.56
2022-09-01T06:37:55.242Z,100617.44
2022-09-01T06:41:12.936Z,100615.22
2022-09-01T06:44:02.170Z,100622.69
2022-09-01T06:46:45.377Z,100613.22
2022-09-01T06:49:39.162Z,100612.09
2022-09-01T06:52:28.141Z,100619.97
2022-09-01T06:55:18.145Z,100610.81
2022-09-01T06:58:07.104Z,100621.22
2022-09-01T07:00:56.132Z,100612.28
2022-09-01T07:03:40.489Z,100610.09
2022-09-01T07:07:00.382Z,100610.59
2022-09-01T07:10:18.315Z,100605.03
2022-09-01T07:13:07.339Z,100610.94
2022-09-01T07:19:13.661Z,100609.75
2022-09-01T07:22:09.690Z,100611.34
2022-09-01T07:25:11.469Z,100604.69
2022-09-01T07:28:37.329Z,100609.56
2022-09-01T07:34:40.391Z,100611.41
2022-09-01T07:44:03.082Z,100612.69
2022-09-01T07:47:51.815Z,100606.25
2022-09-01T07:50:40.169Z,100611.06
2022-09-01T07:53:22.633Z,100611.22
2022-09-01T07:56:16.052Z,100614.72
2022-09-01T07:58:59.614Z,100620.22
2022-09-01T08:01:50.223Z,100622.59
2022-09-01T08:04:31.753Z,100625.97
2022-09-01T08:07:21.063Z,100630.03
2022-09-01T08:10:02.258Z,100623.25
2022-09-01T08:12:57.257Z,100623.38
2022-09-01T08:15:41.375Z,100624.31
2022-09-01T08:18:48.769Z,100627.22
2022-09-01T08:21:49.435Z,100623.25
2022-09-01T08:24:30.365Z,100624.19
2022-09-01T08:26:59.867Z,100624.00
2022-09-01T08:29:28.621Z,100626.88
2022-09-01T08:31:59.287Z,100628.66
2022-09-01T08:34:27.722Z,100629.81
2022-09-01T08:36:56.151Z,100628.50
2022-09-01T08:39:24.453Z,100628.81
2022-09-01T08:42:05.477Z,100623.50
2022-09-01T08:44:47.139Z,100618.97
2022-09-01T08:47:28.736Z,100624.78
2022-09-01T08:50:01.734Z,100622.78
2022-09-01T08:53:09.183Z,100608.44
2022-09-01T08:55:43.296Z,100616.69
2022-09-01T08:58:17.242Z,100616.94
2022-09-01T09:00:55.891Z,100624.22
2022-09-01T09:03:42.058Z,100615.22
2022-09-01T09:06:18.794Z,100613.78
2022-09-01T09:08:54.545Z,100610.53
2022-09-01T09:11:46.938Z,100601.84
2022-09-01T09:14:38.371Z,100607.47
2022-09-01T09:17:06.988Z,100594.63
2022-09-01T09:19:38.163Z,100598.47
2022-09-01T09:22:11.335Z,100590.97
2022-09-01T09:24:51.197Z,100595.91
2022-09-01T09:27:21.825Z,100592.41
2022-09-01T09:29:53.679Z,100590.84
2022-09-01T09:32:31.579Z,100590.25
2022-09-01T09:35:24.484Z,100589.78
2022-09-01T09:37:53.536Z,100593.63
2022-09-01T09:40:23.409Z,100592.78
2022-09-01T09:43:08.603Z,100590.63
2022-09-01T09:45:42.053Z,100586.44
2022-09-01T09:48:28.876Z,100593.13
2022-09-01T09:50:57.279Z,100593.28
2022-09-01T09:53:29.998Z,100595.78
2022-09-01T09:56:01.842Z,100589.72
2022-09-01T09:58:35.287Z,100594.78
2022-09-01T10:01:11.294Z,100595.50
2022-09-01T10:03:43.680Z,100590.47
2022-09-01T10:06:31.629Z,100591.59
2022-09-01T10:09:01.350Z,100589.38
2022-09-01T10:11:35.567Z,100594.66
2022-09-01T10:14:08.829Z,100583.19
2022-09-01T10:16:44.937Z,100581.19
2022-09-01T10:19:17.142Z,100583.50
2022-09-01T10:21:47.416Z,100576.13
2022-09-01T10:24:27.067Z,100571.97
2022-09-01T10:27:02.582Z,100565.41
2022-09-01T10:29:47.118Z,100567.41
2022-09-01T10:32:34.982Z,100571.94
2022-09-01T10:35:06.083Z,100564.59
2022-09-01T10:37:35.989Z,100568.03
2022-09-01T10:40:35.369Z,100569.53
2022-09-01T10:43:41.183Z,100569.78
2022-09-01T10:46:50.388Z,100563.59
2022-09-01T10:49:46.477Z,100569.00
2022-09-01T10:52:58.906Z,100569.66
2022-09-01T10:55:33.937Z,100569.44
2022-09-01T11:01:15.621Z,100563.78
2022-09-01T11:03:57.136Z,100565.38
2022-09-01T11:09:48.471Z,100560.66
2022-09-01T11:12:41.988Z,100563.06
2022-09-01T11:15:36.935Z,100561.19
2022-09-01T11:18:11.990Z,100559.03
2022-09-01T11:20:42.815Z,100555.78
2022-09-01T11:23:14.789Z,100552.63
2022-09-01T11:25:48.576Z,100543.28
2022-09-01T11:28:45.205Z,100547.09
2022-09-01T11:31:21.918Z,100544.59
2022-09-01T11:34:15.256Z,100530.78
2022-09-01T11:36:55.880Z,100532.84
2022-09-01T11:39:49.596Z,100541.81
2022-09-01T11:42:22.852Z,100528.97
2022-09-01T11:44:57.792Z,100538.63
2022-09-01T11:47:30.321Z,100535.72
2022-09-01T11:50:00.984Z,100537.94
2022-09-01T11:52:31.977Z,100530.53
2022-09-01T11:55:01.106Z,100535.34
2022-09-01T11:57:34.642Z,100533.31
2022-09-01T12:00:06.112Z,100533.66
2022-09-01T12:02:45.543Z,100537.81
2022-09-01T12:05:28.966Z,100525.81
2022-09-01T12:07:57.886Z,100526.19
2022-09-01T12:10:32.777Z,100532.97
2022-09-01T12:13:08.138Z,100528.81
2022-09-01T12:15:54.943Z,100523.00
2022-09-01T12:18:31.619Z,100527.66
2022-09-01T12:21:02.312Z,100525.25
2022-09-01T12:23:34.465Z,100525.38
2022-09-01T12:26:06.530Z,100530.66
2022-09-01T12:28:41.744Z,100535.88
2022-09-01T12:31:16.372Z,100533.09
2022-09-01T12:33:45.454Z,100528.16
2022-09-01T12:36:23.071Z,100527.94
2022-09-01T12:38:51.924Z,100529.75
2022-09-01T12:41:36.030Z,100529.25
2022-09-01T12:44:34.526Z,100533.97
2022-09-01T12:47:06.908Z,100516.31
2022-09-01T12:49:47.869Z,100518.56
2022-09-01T12:52:26.642Z,100516.13
2022-09-01T12:55:47.362Z,100517.16
2022-09-01T12:58:06.089Z,100519.81
2022-09-01T13:00:37.984Z,100513.22
2022-09-01T13:03:13.473Z,100514.72
2022-09-01T13:05:43.382Z,100517.22
2022-09-01T13:08:13.845Z,100514.69
2022-09-01T13:10:44.691Z,100520.19
2022-09-01T13:13:14.379Z,100513.78
2022-09-01T13:15:48.289Z,100522.78
2022-09-01T13:18:16.747Z,100522.72
2022-09-01T13:20:45.404Z,100519.66
2022-09-01T13:23:13.819Z,100522.22
2022-09-01T13:25:44.425Z,100524.94
2022-09-01T13:28:13.371Z,100527.00
2022-09-01T13:30:44.470Z,100519.28
2022-09-01T13:33:20.898Z,100520.94
2022-09-01T13:35:52.540Z,100520.63
2022-09-01T13:38:21.058Z,100533.69
2022-09-01T13:40:51.077Z,100522.69
2022-09-01T13:43:22.267Z,100527.47
2022-09-01T13:45:52.630Z,100526.91
2022-09-01T13:48:21.238Z,100533.41
2022-09-01T13:53:41.018Z,100533.47
2022-09-01T13:56:09.477Z,100534.34
2022-09-01T13:58:37.650Z,100534.22
2022-09-01T14:01:07.834Z,100529.75
2022-09-01T14:03:37.055Z,100525.22
2022-09-01T14:06:07.112Z,100528.09
2022-09-01T14:08:35.332Z,100528.28
2022-09-01T14:11:03.979Z,100530.66
2022-09-01T14:13:32.945Z,100529.56
2022-09-01T14:16:02.239Z,100529.56
2022-09-01T14:18:36.885Z,100529.66
2022-09-01T14:21:05.920Z,100526.16
2022-09-01T14:23:34.121Z,100522.84
2022-09-01T14:26:02.449Z,100529.25
2022-09-01T14:28:30.938Z,100521.50
2022-09-01T14:33:27.430Z,100519.69
2022-09-01T14:35:57.128Z,100525.72
2022-09-01T14:38:25.562Z,100520.41
2022-09-01T14:40:53.809Z,100516.25
2022-09-01T14:43:23.045Z,100522.59
2022-09-01T14:45:52.017Z,100520.63
2022-09-01T14:48:20.920Z,100517.94
2022-09-01T14:50:50.968Z,100517.78
2022-09-01T14:53:22.713Z,100514.81
2022-09-01T14:55:55.561Z,100516.19
2022-09-01T14:58:25.352Z,100518.63
2022-09-01T15:01:00.410Z,100512.72
2022-09-01T15:03:35.837Z,100513.72
2022-09-01T15:06:03.977Z,100515.94
2022-09-01T15:08:33.681Z,100513.53
2022-09-01T15:11:02.635Z,100508.59
2022-09-01T15:13:30.860Z,100510.63
2022-09-01T15:15:59.173Z,100505.91
2022-09-01T15:18:27.436Z,100504.00
2022-09-01T15:20:55.714Z,100506.09
2022-09-01T15:23:26.689Z,100501.06
2022-09-01T15:25:57.883Z,100504.13
2022-09-01T15:28:26.911Z,100503.56
2022-09-01T15:30:57.080Z,100504.94
2022-09-01T15:33:25.347Z,100503.81
2022-09-01T15:35:53.895Z,100499.09
2022-09-01T15:38:26.117Z,100501.16
2022-09-01T15:41:00.476Z,100505.47
2022-09-01T15:43:29.474Z,100507.56
2022-09-01T15:45:59.333Z,100503.72
2022-09-01T15:48:28.521Z,100502.38
2022-09-01T15:51:16.330Z,100500.72
2022-09-01T15:53:44.726Z,100500.91
2022-09-01T15:56:14.665Z,100500.16
2022-09-01T15:59:00.191Z,100494.91
2022-09-01T16:01:32.441Z,100489.91
2022-09-01T16:04:01.290Z,100485.44
2022-09-01T16:06:29.774Z,100487.81
2022-09-01T16:08:58.254Z,100488.19
2022-09-01T16:11:28.365Z,100494.41
2022-09-01T16:13:58.286Z,100490.47
2022-09-01T16:16:45.283Z,100494.91
2022-09-01T16:19:25.386Z,100490.69
2022-09-01T16:22:00.055Z,100491.09
2022-09-01T16:24:28.721Z,100490.63
2022-09-01T16:26:58.886Z,100490.56
2022-09-01T16:29:35.898Z,100482.63
2022-09-01T16:32:04.511Z,100485.50
2022-09-01T16:34:34.759Z,100488.03
2022-09-01T16:37:07.564Z,100485.41
2022-09-01T16:39:47.003Z,100487.94
2022-09-01T16:42:26.323Z,100492.38
2022-09-01T16:45:03.660Z,100491.97
2022-09-01T16:47:55.911Z,100487.19
2022-09-01T16:50:36.933Z,100482.63
2022-09-01T16:53:15.927Z,100492.38
2022-09-01T16:55:58.737Z,100493.69
2022-09-01T16:58:41.329Z,100495.75
2022-09-01T17:01:19.898Z,100489.09
2022-09-01T17:03:57.403Z,100484.06
2022-09-01T17:06:31.996Z,100486.44
2022-09-01T17:09:11.491Z,100486.81
2022-09-01T17:11:49.461Z,100487.78
2022-09-01T17:14:27.785Z,100478.84
2022-09-01T17:17:06.546Z,100478.13
2022-09-01T17:19:35.430Z,100478.13
2022-09-01T17:22:06.478Z,100481.22
2022-09-01T17:24:40.977Z,100491.09
2022-09-01T17:27:15.314Z,100488.88
2022-09-01T17:29:48.144Z,100488.63
2022-09-01T17:32:31.042Z,100485.72
2022-09-01T17:35:11.460Z,100482.81
2022-09-01T17:37:46.659Z,100478.25
2022-09-01T17:40:23.364Z,100477.84
2022-09-01T17:43:02.355Z,100483.03
2022-09-01T17:45:39.169Z,100489.53
2022-09-01T17:48:15.407Z,100485.09
2022-09-01T17:50:59.454Z,100484.88
2022-09-01T17:53:39.164Z,100491.16
2022-09-01T17:56:16.305Z,100486.31
2022-09-01T17:58:53.634Z,100488.31
2022-09-01T18:01:29.320Z,100483.44
2022-09-01T18:04:25.742Z,100478.75
2022-09-01T18:07:01.147Z,100478.47
2022-09-01T18:09:31.810Z,100476.00
2022-09-01T18:12:07.964Z,100484.88
2022-09-01T18:14:42.591Z,100482.63
2022-09-01T18:17:20.555Z,100483.50
2022-09-01T18:19:58.333Z,100476.56
2022-09-01T18:22:28.952Z,100479.34
2022-09-01T18:25:02.209Z,100486.28
2022-09-01T18:27:33.499Z,100476.41
2022-09-01T18:30:02.867Z,100483.19
2022-09-01T18:32:42.851Z,100488.88
2022-09-01T18:35:25.637Z,100485.88
2022-09-01T18:38:12.604Z,100490.34
2022-09-01T18:41:02.615Z,100491.81
2022-09-01T18:43:36.752Z,100486.56
2022-09-01T18:46:15.202Z,100494.47
2022-09-01T18:49:01.048Z,100490.16
2022-09-01T18:51:47.577Z,100485.72
2022-09-01T18:54:19.736Z,100486.19
2022-09-01T18:56:53.934Z,100489.31
2022-09-01T18:59:56.900Z,100491.59
2022-09-01T19:02:39.120Z,100491.50
2022-09-01T19:05:21.233Z,100491.72
2022-09-01T19:07:57.381Z,100499.66
2022-09-01T19:10:31.485Z,100494.97
2022-09-01T19:13:09.013Z,100483.22
2022-09-01T19:15:43.168Z,100497.00
2022-09-01T19:18:23.757Z,100498.31
2022-09-01T19:20:58.233Z,100488.28
2022-09-01T19:23:36.653Z,100495.94
2022-09-01T19:26:08.463Z,100493.16
2022-09-01T19:28:43.163Z,100497.38
2022-09-01T19:31:19.088Z,100487.19
2022-09-01T19:33:50.851Z,100500.00
2022-09-01T19:36:26.717Z,100493.03
2022-09-01T19:38:56.171Z,100501.94
2022-09-01T19:41:31.066Z,100508.03
2022-09-01T19:44:08.277Z,100502.88
2022-09-01T19:46:42.273Z,100507.44
2022-09-01T19:49:18.977Z,100503.34
2022-09-01T19:51:54.888Z,100502.28
2022-09-01T19:54:28.607Z,100509.34
2022-09-01T19:57:02.904Z,100509.56
2022-09-01T19:59:44.024Z,100507.19
2022-09-01T20:02:21.220Z,100511.97
2022-09-01T20:04:57.054Z,100503.22
2022-09-01T20:07:33.131Z,100506.91
2022-09-01T20:10:13.711Z,100512.03
2022-09-01T20:12:50.285Z,100506.81
2022-09-01T20:15:24.358Z,100509.78
2022-09-01T20:17:59.383Z,100514.56
2022-09-01T20:20:32.470Z,100520.06
2022-09-01T20:23:09.431Z,100511.44
2022-09-01T20:25:42.621Z,100515.13
2022-09-01T20:28:25.612Z,100516.31
2022-09-01T20:31:01.096Z,100515.34
2022-09-01T20:33:37.551Z,100517.91
2022-09-01T20:36:10.027Z,100509.03
2022-09-01T20:39:05.520Z,100511.78
2022-09-01T20:41:39.607Z,100512.25
2022-09-01T20:44:17.197Z,100509.22
2022-09-01T20:46:47.434Z,100507.88
2022-09-01T20:49:17.110Z,100516.50
2022-09-01T20:51:51.847Z,100513.88
2022-09-01T20:54:31.003Z,100519.38
2022-09-01T20:57:09.626Z,100522.56
2022-09-01T20:59:49.025Z,100515.34
2022-09-01T21:02:34.974Z,100520.06
2022-09-01T21:05:13.416Z,100528.81
2022-09-01T21:07:50.731Z,100513.75
2022-09-01T21:10:28.985Z,100514.50
2022-09-01T21:13:04.507Z,100519.75
2022-09-01T21:15:40.139Z,100513.66
2022-09-01T21:18:22.827Z,100514.59
2022-09-01T21:20:58.048Z,100518.06
2022-09-01T21:23:26.443Z,100507.44
2022-09-01T21:25:56.576Z,100516.75
2022-09-01T21:28:26.696Z,100512.34
2022-09-01T21:30:57.765Z,100509.72
2022-09-01T21:33:28.713Z,100507.88
2022-09-01T21:35:57.279Z,100520.13
2022-09-01T21:38:25.678Z,100518.59
2022-09-01T21:40:55.688Z,100510.19
2022-09-01T21:43:26.717Z,100518.38
2022-09-01T21:45:54.990Z,100511.00
2022-09-01T21:48:23.421Z,100518.44
2022-09-01T21:50:51.891Z,100518.44
2022-09-01T21:53:20.406Z,100513.50
2022-09-01T21:55:49.050Z,100515.94
2022-09-01T21:58:18.655Z,100514.59
2022-09-01T22:00:49.326Z,100517.34
2022-09-01T22:03:17.762Z,100511.34
2022-09-01T22:05:46.457Z,100512.28
2022-09-01T22:08:16.160Z,100509.56
2022-09-01T22:10:46.301Z,100515.66
2022-09-01T22:13:15.930Z,100513.88
2022-09-01T22:15:48.033Z,100511.88
2022-09-01T22:18:17.401Z,100517.25
2022-09-01T22:20:46.478Z,100515.31
2022-09-01T22:23:16.532Z,100515.22
2022-09-01T22:25:48.372Z,100514.16
2022-09-01T22:28:17.121Z,100514.59
2022-09-01T22:30:48.089Z,100512.81
2022-09-01T22:33:17.672Z,100506.72
2022-09-01T22:35:48.809Z,100508.19
2022-09-01T22:38:17.639Z,100508.19
2022-09-01T22:40:47.375Z,100504.50
2022-09-01T22:43:18.413Z,100503.03
2022-09-01T22:45:49.508Z,100507.34
2022-09-01T22:48:19.108Z,100508.50
2022-09-01T22:50:48.770Z,100505.88
2022-09-01T22:53:19.306Z,100510.19
2022-09-01T22:55:49.873Z,100508.19
2022-09-01T22:58:18.316Z,100501.03
2022-09-01T23:00:50.219Z,100505.84
2022-09-01T23:03:20.841Z,100499.97
2022-09-01T23:05:50.128Z,100506.19
2022-09-01T23:08:19.168Z,100504.41
2022-09-01T23:10:47.852Z,100501.66
2022-09-01T23:13:17.361Z,100505.75
2022-09-01T23:15:45.562Z,100489.84
2022-09-01T23:18:15.774Z,100489.53
2022-09-01T23:20:44.113Z,100489.94
2022-09-01T23:23:15.108Z,100490.13
2022-09-01T23:25:43.947Z,100494.09
2022-09-01T23:28:12.527Z,100490.88
2022-09-01T23:30:42.963Z,100491.91
2022-09-01T23:33:11.125Z,100487.00
2022-09-01T23:35:45.580Z,100490.13
2022-09-01T23:38:18.098Z,100488.03
2022-09-01T23:40:48.882Z,100492.22
2022-09-01T23:43:19.456Z,100492.94
2022-09-01T23:45:52.803Z,100484.81
2022-09-01T23:48:21.397Z,100490.06
2022-09-01T23:50:53.795Z,100482.94
2022-09-01T23:53:24.096Z,100488.19
2022-09-01T23:55:54.495Z,100493.69
2022-09-01T23:58:24.001Z,100482.41
